Time;durP1;ratioP1;P1;durP2;ratioP2;P2;SDS_P1;SDS_P2;PMS_P1;PMS_P2;Temp;Humidity;BMP_temperature;BMP_pressure;BME280_temperature;BME280_humidity;BME280_pressure;Samples;Min_cycle;Max_cycle;Signal;HPM_P1;HPM_P2
2023/08/06 00:01:32;;;;;;;1.92;1.30;;;13.30;99.90;;;;;;5012886;28;20492;-72
2023/08/06 00:03:59;;;;;;;2.50;1.10;;;13.30;99.90;;;;;;5014171;28;20097;-73
2023/08/06 00:06:25;;;;;;;2.42;1.30;;;13.30;99.90;;;;;;5014513;28;20026;-73
2023/08/06 00:08:51;;;;;;;2.33;1.10;;;13.20;99.90;;;;;;5014106;28;20022;-72
2023/08/06 00:11:16;;;;;;;2.45;1.20;;;13.30;99.90;;;;;;5014125;28;20488;-72
2023/08/06 00:13:42;;;;;;;2.38;1.23;;;13.30;99.90;;;;;;5012782;28;20072;-73
2023/08/06 00:16:13;;;;;;;2.05;1.00;;;13.30;99.90;;;;;;5012860;28;20050;-74
2023/08/06 00:18:39;;;;;;;2.15;1.30;;;13.20;99.90;;;;;;5013796;28;20069;-74
2023/08/06 00:21:05;;;;;;;2.38;1.25;;;13.20;99.90;;;;;;5013915;28;20033;-73
2023/08/06 00:23:31;;;;;;;3.15;1.40;;;13.20;99.90;;;;;;5013825;28;20022;-73
2023/08/06 00:25:57;;;;;;;2.10;1.42;;;13.20;99.90;;;;;;5014158;28;20030;-73
2023/08/06 00:28:22;;;;;;;2.60;1.40;;;13.20;99.90;;;;;;5013937;28;20052;-74
2023/08/06 00:30:55;;;;;;;2.85;1.70;;;13.20;99.90;;;;;;5013998;28;20457;-73
2023/08/06 00:33:22;;;;;;;3.40;1.38;;;13.20;99.90;;;;;;5013776;28;20018;-74
2023/08/06 00:35:47;;;;;;;3.20;1.50;;;13.20;99.90;;;;;;5013819;28;20411;-73
2023/08/06 00:38:13;;;;;;;3.15;1.20;;;13.20;99.90;;;;;;5013002;28;20023;-73
2023/08/06 00:40:39;;;;;;;2.10;1.10;;;13.20;99.90;;;;;;5013807;28;20026;-73
2023/08/06 00:43:05;;;;;;;1.90;1.00;;;13.20;99.90;;;;;;5013758;28;20026;-73
2023/08/06 00:45:34;;;;;;;2.10;1.20;;;13.20;99.90;;;;;;5012547;28;20034;-73
2023/08/06 00:48:01;;;;;;;1.75;1.13;;;13.20;99.90;;;;;;5014071;28;20018;-74
2023/08/06 00:50:27;;;;;;;2.53;1.30;;;13.30;99.90;;;;;;5013570;28;20116;-73
2023/08/06 00:52:54;;;;;;;3.28;1.30;;;13.30;99.90;;;;;;5013987;28;20528;-74
2023/08/06 00:55:19;;;;;;;1.70;1.00;;;13.30;99.90;;;;;;4995952;28;20026;-73
2023/08/06 00:57:45;;;;;;;1.67;1.10;;;13.40;99.90;;;;;;5013549;28;20522;-74
2023/08/06 01:00:12;;;;;;;1.80;1.00;;;13.40;99.90;;;;;;5013821;28;20049;-73
2023/08/06 01:02:37;;;;;;;2.35;1.13;;;13.40;99.90;;;;;;5018272;28;20093;-73
2023/08/06 01:05:04;;;;;;;1.75;1.00;;;13.50;99.90;;;;;;5018462;28;20049;-73
2023/08/06 01:07:48;;;;;;;2.28;1.20;;;13.40;99.90;;;;;;5017455;28;20037;-73
2023/08/06 01:10:38;;;;;;;1.55;0.90;;;13.30;99.90;;;;;;5017409;28;20029;-74
2023/08/06 01:13:28;;;;;;;1.48;0.90;;;13.30;99.90;;;;;;5017350;28;20044;-73
2023/08/06 01:15:59;;;;;;;1.60;1.10;;;13.40;99.90;;;;;;5017581;28;20465;-74
2023/08/06 01:18:25;;;;;;;2.55;1.10;;;13.40;99.90;;;;;;5017155;28;20037;-73
2023/08/06 01:20:51;;;;;;;1.90;1.13;;;13.40;99.90;;;;;;5015847;28;20034;-74
2023/08/06 01:23:17;;;;;;;1.60;1.10;;;13.40;99.90;;;;;;5017487;28;20476;-73
2023/08/06 01:26:12;;;;;;;2.15;0.98;;;13.40;99.90;;;;;;5017477;28;20029;-74
2023/08/06 01:28:54;;;;;;;2.78;0.98;;;13.40;99.90;;;;;;5016922;28;20030;-73
2023/08/06 01:31:37;;;;;;;1.35;0.80;;;13.30;99.90;;;;;;5017096;28;20499;-74
2023/08/06 01:34:07;;;;;;;1.58;1.00;;;13.40;99.90;;;;;;5017322;28;20029;-74
2023/08/06 01:36:33;;;;;;;3.30;1.30;;;13.40;99.90;;;;;;5015632;28;20026;-74
2023/08/06 01:38:59;;;;;;;1.60;0.90;;;13.40;99.90;;;;;;5016940;28;20116;-73
2023/08/06 01:41:25;;;;;;;1.42;0.85;;;13.40;99.90;;;;;;5016781;28;20030;-73
2023/08/06 01:43:51;;;;;;;2.25;1.02;;;13.40;99.90;;;;;;5016946;28;20080;-74
2023/08/06 01:46:17;;;;;;;1.95;0.80;;;13.40;99.90;;;;;;5016708;28;20084;-73
2023/08/06 01:48:43;;;;;;;1.58;0.90;;;13.40;99.90;;;;;;5016600;28;20046;-73
2023/08/06 01:51:08;;;;;;;1.40;0.88;;;13.40;99.90;;;;;;5016620;28;20062;-73
2023/08/06 01:53:34;;;;;;;3.35;1.15;;;13.40;99.90;;;;;;5016571;28;20034;-74
2023/08/06 01:56:00;;;;;;;2.17;1.20;;;13.40;99.90;;;;;;5015297;28;20026;-73
2023/08/06 01:58:25;;;;;;;1.58;0.93;;;13.40;99.90;;;;;;5016389;28;20060;-73
2023/08/06 02:00:51;;;;;;;3.38;1.02;;;13.40;99.90;;;;;;5015345;28;20026;-73
2023/08/06 02:03:16;;;;;;;3.97;1.25;;;13.50;99.90;;;;;;5016651;28;20041;-73
2023/08/06 02:05:42;;;;;;;5.18;2.15;;;13.40;99.90;;;;;;5016356;28;20022;-73
2023/08/06 02:08:08;;;;;;;3.72;1.80;;;13.40;99.90;;;;;;5016431;28;20026;-74
2023/08/06 02:10:34;;;;;;;3.03;1.60;;;13.30;99.90;;;;;;5015147;28;20034;-74
2023/08/06 02:13:00;;;;;;;3.30;1.60;;;13.30;99.90;;;;;;5016500;28;20022;-74
2023/08/06 02:15:25;;;;;;;1.73;1.00;;;13.30;99.90;;;;;;5016123;28;20026;-74
2023/08/06 02:17:51;;;;;;;2.55;1.35;;;13.30;99.90;;;;;;5016089;28;20449;-73
2023/08/06 02:20:17;;;;;;;3.10;1.67;;;13.30;99.90;;;;;;5016157;28;20026;-72
2023/08/06 02:22:43;;;;;;;2.17;1.42;;;13.30;99.90;;;;;;5015098;28;20060;-72
2023/08/06 02:25:08;;;;;;;2.63;1.42;;;13.40;99.90;;;;;;5015015;28;20033;-72
2023/08/06 02:27:34;;;;;;;1.70;1.00;;;13.40;99.90;;;;;;5015858;28;20399;-73
2023/08/06 02:30:00;;;;;;;1.67;1.10;;;13.40;99.90;;;;;;5016141;28;20480;-73
2023/08/06 02:32:26;;;;;;;2.38;1.50;;;13.40;99.90;;;;;;5015889;28;20037;-73
2023/08/06 02:34:52;;;;;;;2.03;1.30;;;13.40;99.90;;;;;;5015765;28;20117;-73
2023/08/06 02:37:18;;;;;;;1.58;1.02;;;13.40;99.90;;;;;;5014474;28;20049;-73
2023/08/06 02:39:43;;;;;;;2.50;1.10;;;13.40;99.90;;;;;;5015645;28;20022;-73
2023/08/06 02:42:09;;;;;;;2.03;0.90;;;13.50;99.90;;;;;;5015889;28;20076;-74
2023/08/06 02:44:35;;;;;;;2.95;1.15;;;13.50;99.90;;;;;;5015652;28;20025;-73
2023/08/06 02:47:01;;;;;;;1.83;1.20;;;13.40;99.90;;;;;;5015656;28;20434;-73
2023/08/06 02:49:27;;;;;;;1.70;1.08;;;13.40;99.90;;;;;;5015446;28;20034;-74
2023/08/06 02:51:52;;;;;;;1.65;1.10;;;13.30;99.90;;;;;;5015458;28;20032;-73
2023/08/06 02:54:19;;;;;;;2.30;1.40;;;13.30;99.90;;;;;;5015514;28;20037;-74
2023/08/06 02:56:47;;;;;;;1.88;1.20;;;13.30;99.90;;;;;;5015456;28;20060;-74
2023/08/06 02:59:13;;;;;;;4.50;1.67;;;13.30;99.90;;;;;;5015381;28;20057;-74
2023/08/06 03:01:39;;;;;;;2.72;1.50;;;13.30;99.90;;;;;;5015207;28;20072;-74
2023/08/06 03:04:05;;;;;;;2.75;1.88;;;13.20;99.90;;;;;;5015347;28;20030;-74
2023/08/06 03:06:31;;;;;;;2.65;1.60;;;13.20;99.90;;;;;;5015160;28;20473;-74
2023/08/06 03:08:57;;;;;;;2.30;1.30;;;13.20;99.90;;;;;;5015077;28;20026;-74
2023/08/06 03:11:23;;;;;;;2.75;1.40;;;13.20;99.90;;;;;;5015439;28;20076;-74
2023/08/06 03:13:48;;;;;;;4.05;1.50;;;13.10;99.90;;;;;;5015371;28;20392;-74
2023/08/06 03:16:14;;;;;;;2.25;1.50;;;13.10;99.90;;;;;;5015283;28;20038;-74
2023/08/06 03:18:40;;;;;;;2.72;1.40;;;13.10;99.90;;;;;;5014876;28;20033;-73
2023/08/06 03:21:06;;;;;;;4.50;1.98;;;13.10;99.90;;;;;;5013639;28;20446;-73
2023/08/06 03:23:31;;;;;;;4.95;2.03;;;13.10;99.90;;;;;;5013922;28;20022;-73
2023/08/06 03:26:04;;;;;;;2.55;1.73;;;13.10;99.90;;;;;;5014860;28;20079;-74
2023/08/06 03:28:30;;;;;;;2.30;1.40;;;13.10;99.90;;;;;;5014774;28;20026;-73
2023/08/06 03:31:02;;;;;;;2.92;1.70;;;13.00;99.90;;;;;;5015019;28;20477;-74
2023/08/06 03:33:27;;;;;;;2.53;1.40;;;13.10;99.90;;;;;;5014773;28;20025;-74
2023/08/06 03:35:53;;;;;;;2.33;1.45;;;13.10;99.90;;;;;;5014732;28;20033;-73
2023/08/06 03:38:19;;;;;;;3.42;1.50;;;13.10;99.90;;;;;;5014537;28;20026;-74
2023/08/06 03:40:45;;;;;;;3.08;1.67;;;13.00;99.90;;;;;;5013372;28;20497;-74
2023/08/06 03:43:11;;;;;;;2.60;1.60;;;13.00;99.90;;;;;;5014788;28;20437;-74
2023/08/06 03:45:37;;;;;;;4.18;1.67;;;12.90;99.90;;;;;;5014499;28;20050;-73
2023/08/06 03:48:03;;;;;;;2.85;1.50;;;13.00;99.90;;;;;;5014372;28;20443;-74
2023/08/06 03:50:28;;;;;;;2.30;1.50;;;13.00;99.90;;;;;;5013171;28;20484;-74
2023/08/06 03:52:54;;;;;;;2.85;1.50;;;12.90;99.90;;;;;;5014619;28;20026;-73
2023/08/06 03:55:19;;;;;;;2.72;1.67;;;12.90;99.90;;;;;;5013151;28;20030;-74
2023/08/06 03:57:45;;;;;;;4.50;1.77;;;12.90;99.90;;;;;;5014101;28;20088;-74
2023/08/06 04:00:12;;;;;;;2.15;1.50;;;12.90;99.90;;;;;;5014313;28;20080;-73
2023/08/06 04:02:38;;;;;;;2.47;1.55;;;12.90;99.90;;;;;;5014142;28;20029;-73
2023/08/06 04:05:04;;;;;;;2.30;1.58;;;12.90;99.90;;;;;;5014206;28;20064;-73
2023/08/06 04:07:29;;;;;;;2.63;1.92;;;12.80;99.90;;;;;;5014085;28;20022;-73
2023/08/06 04:09:58;;;;;;;4.43;1.70;;;12.80;99.90;;;;;;5014441;28;20121;-73
2023/08/06 04:12:24;;;;;;;5.03;1.40;;;12.80;99.90;;;;;;5012902;28;20034;-73
2023/08/06 04:14:51;;;;;;;2.63;1.50;;;12.80;99.90;;;;;;5014139;28;20477;-73
2023/08/06 04:17:20;;;;;;;2.33;1.50;;;12.80;99.90;;;;;;5014069;28;20104;-74
2023/08/06 04:19:47;;;;;;;3.47;1.33;;;12.70;99.90;;;;;;5016648;28;20500;-72
2023/08/06 04:22:14;;;;;;;4.32;1.50;;;12.70;99.90;;;;;;5014910;28;20056;-72
2023/08/06 04:24:40;;;;;;;3.08;1.52;;;12.70;99.90;;;;;;5014763;28;20101;-72
2023/08/06 04:27:05;;;;;;;2.30;1.60;;;12.60;99.90;;;;;;5015136;28;20117;-73
2023/08/06 04:29:31;;;;;;;2.53;1.35;;;12.60;99.90;;;;;;5013982;28;20048;-72
2023/08/06 04:31:57;;;;;;;2.28;1.65;;;12.70;99.90;;;;;;5014146;28;20530;-73
2023/08/06 04:34:22;;;;;;;2.00;1.30;;;12.70;99.90;;;;;;5013755;28;20032;-73
2023/08/06 04:36:48;;;;;;;3.22;1.48;;;12.70;99.90;;;;;;5012427;28;20108;-73
2023/08/06 04:39:14;;;;;;;2.28;1.40;;;12.80;99.90;;;;;;5013616;28;20061;-73
2023/08/06 04:41:40;;;;;;;2.97;1.80;;;12.80;99.90;;;;;;5012501;28;20096;-73
2023/08/06 04:44:05;;;;;;;3.15;2.00;;;12.80;99.90;;;;;;5013643;28;20034;-73
2023/08/06 04:46:31;;;;;;;2.75;1.80;;;12.70;99.90;;;;;;5013686;28;20029;-73
2023/08/06 04:48:57;;;;;;;3.45;1.92;;;12.80;99.90;;;;;;5013829;28;20392;-73
2023/08/06 04:51:22;;;;;;;2.67;1.55;;;12.80;99.90;;;;;;5013624;28;20443;-73
2023/08/06 04:53:48;;;;;;;2.55;1.70;;;12.80;99.90;;;;;;5013552;28;20499;-73
2023/08/06 04:56:14;;;;;;;2.30;1.70;;;12.80;99.90;;;;;;5013604;28;20057;-73
2023/08/06 04:58:39;;;;;;;2.70;1.38;;;12.80;99.90;;;;;;5014051;28;20034;-73
2023/08/06 05:01:05;;;;;;;4.32;1.48;;;12.80;99.90;;;;;;5013406;28;20037;-73
2023/08/06 05:03:30;;;;;;;3.05;2.10;;;12.80;99.90;;;;;;5013518;28;20022;-72
2023/08/06 05:05:56;;;;;;;3.28;1.80;;;12.80;99.90;;;;;;5013389;28;20022;-73
2023/08/06 05:08:22;;;;;;;3.47;1.88;;;12.80;99.90;;;;;;5013321;28;20080;-72
2023/08/06 05:10:47;;;;;;;2.65;1.80;;;12.80;99.90;;;;;;5012585;28;20377;-72
2023/08/06 05:13:13;;;;;;;2.05;1.40;;;12.80;99.90;;;;;;5014178;28;20030;-72
2023/08/06 05:15:42;;;;;;;2.80;2.00;;;12.80;99.90;;;;;;5014596;28;20018;-72
2023/08/06 05:18:08;;;;;;;6.70;4.53;;;12.80;99.90;;;;;;5013558;28;20129;-73
2023/08/06 05:20:41;;;;;;;11.32;8.40;;;12.80;99.90;;;;;;5012928;28;20376;-72
2023/08/06 05:23:08;;;;;;;9.63;6.93;;;12.90;99.90;;;;;;5013286;28;20030;-73
2023/08/06 05:25:40;;;;;;;12.15;8.57;;;12.90;99.90;;;;;;5013294;28;20079;-73
2023/08/06 05:28:05;;;;;;;7.55;5.45;;;12.90;99.90;;;;;;5013092;28;20033;-73
2023/08/06 05:30:31;;;;;;;4.93;3.08;;;12.90;99.90;;;;;;5013563;28;20447;-73
2023/08/06 05:32:57;;;;;;;4.35;2.70;;;12.90;99.90;;;;;;5013203;28;20034;-73
2023/08/06 05:35:23;;;;;;;3.90;2.40;;;12.90;99.90;;;;;;5013752;28;20022;-73
2023/08/06 05:37:50;;;;;;;7.20;4.47;;;12.90;99.90;;;;;;5015538;28;20057;-72
2023/08/06 05:40:16;;;;;;;4.30;2.28;;;12.90;99.90;;;;;;5032882;28;20037;-73
2023/08/06 05:42:41;;;;;;;5.80;2.78;;;12.90;99.90;;;;;;5024863;28;20034;-73
2023/08/06 05:45:08;;;;;;;3.40;2.53;;;12.90;99.90;;;;;;5012694;28;20026;-72
2023/08/06 05:47:34;;;;;;;3.50;2.83;;;12.90;99.90;;;;;;5017228;28;20104;-72
2023/08/06 05:49:59;;;;;;;3.53;2.35;;;12.90;99.90;;;;;;5014977;28;20535;-72
2023/08/06 05:52:25;;;;;;;3.42;2.00;;;12.90;99.90;;;;;;5017253;28;20042;-72
2023/08/06 05:54:51;;;;;;;2.97;1.67;;;12.90;99.90;;;;;;5016190;28;20038;-72
2023/08/06 05:57:17;;;;;;;2.45;1.60;;;12.90;99.90;;;;;;5014929;28;20030;-73
2023/08/06 05:59:43;;;;;;;2.65;1.70;;;13.00;99.90;;;;;;5016036;28;20026;-73
2023/08/06 06:02:09;;;;;;;2.15;1.63;;;13.00;99.90;;;;;;5020490;28;20021;-73
2023/08/06 06:04:35;;;;;;;3.55;1.92;;;13.00;99.90;;;;;;5016650;28;20451;-73
2023/08/06 06:07:00;;;;;;;7.78;3.45;;;13.00;99.90;;;;;;5016963;28;20399;-73
2023/08/06 06:09:26;;;;;;;6.03;3.20;;;13.00;99.90;;;;;;5017070;28;20072;-72
2023/08/06 06:11:52;;;;;;;7.75;3.78;;;13.00;99.90;;;;;;5020567;28;20403;-73
2023/08/06 06:14:18;;;;;;;9.13;4.22;;;12.90;99.90;;;;;;5019825;28;20103;-72
2023/08/06 06:16:44;;;;;;;8.02;3.80;;;13.00;99.90;;;;;;5021235;28;20121;-73
2023/08/06 06:19:10;;;;;;;4.85;2.70;;;13.00;99.90;;;;;;5015721;28;20041;-73
2023/08/06 06:21:37;;;;;;;4.00;2.03;;;13.00;99.90;;;;;;5019035;28;20029;-73
2023/08/06 06:24:03;;;;;;;5.07;2.20;;;13.10;99.90;;;;;;5014736;28;20026;-73
2023/08/06 06:26:29;;;;;;;2.67;1.60;;;13.10;99.90;;;;;;5007730;28;20057;-72
2023/08/06 06:28:55;;;;;;;2.80;1.60;;;13.10;99.90;;;;;;5015659;28;20057;-73
2023/08/06 06:31:21;;;;;;;3.78;2.65;;;13.10;99.90;;;;;;5015302;28;20068;-73
2023/08/06 06:33:47;;;;;;;5.25;4.00;;;13.10;99.90;;;;;;5019107;28;20458;-73
2023/08/06 06:36:12;;;;;;;5.65;3.50;;;13.20;99.90;;;;;;5014962;28;20080;-73
2023/08/06 06:38:38;;;;;;;4.22;2.97;;;13.20;99.90;;;;;;5014170;28;20026;-73
2023/08/06 06:41:04;;;;;;;3.15;2.00;;;13.20;99.90;;;;;;5013422;28;20030;-73
2023/08/06 06:43:30;;;;;;;4.35;2.10;;;13.20;99.90;;;;;;5014679;28;20022;-73
2023/08/06 06:46:00;;;;;;;2.50;1.70;;;13.30;99.90;;;;;;5013882;28;20391;-72
2023/08/06 06:48:31;;;;;;;2.40;1.50;;;13.50;99.90;;;;;;5012655;28;20026;-73
2023/08/06 06:50:56;;;;;;;4.45;1.70;;;13.60;99.90;;;;;;5013382;28;20049;-72
2023/08/06 06:53:27;;;;;;;3.88;3.15;;;13.60;99.90;;;;;;5010454;28;20120;-73
2023/08/06 06:56:03;;;;;;;5.03;3.40;;;13.60;99.90;;;;;;5007192;28;20022;-73
2023/08/06 06:58:30;;;;;;;3.38;2.70;;;13.60;99.90;;;;;;5013889;28;20030;-73
2023/08/06 07:00:55;;;;;;;2.63;1.85;;;13.50;99.90;;;;;;5013824;28;20026;-73
2023/08/06 07:03:21;;;;;;;2.30;1.58;;;13.60;99.90;;;;;;5003236;28;20457;-73
2023/08/06 07:05:47;;;;;;;2.50;1.50;;;13.60;99.90;;;;;;5014984;28;20030;-73
2023/08/06 07:08:13;;;;;;;3.08;2.13;;;13.50;99.90;;;;;;5007433;28;20112;-72
2023/08/06 07:10:40;;;;;;;3.42;1.75;;;13.60;99.90;;;;;;5015166;28;20030;-72
2023/08/06 07:13:06;;;;;;;2.75;1.80;;;13.60;99.90;;;;;;5015118;28;20044;-72
2023/08/06 07:15:32;;;;;;;3.05;2.13;;;13.60;99.90;;;;;;5013651;28;20026;-72
2023/08/06 07:17:58;;;;;;;3.35;2.05;;;13.60;99.90;;;;;;5014773;28;20037;-72
2023/08/06 07:20:23;;;;;;;2.58;1.90;;;13.60;99.90;;;;;;5015279;28;20026;-72
2023/08/06 07:22:49;;;;;;;3.20;1.70;;;13.60;99.90;;;;;;4999713;28;20022;-72
2023/08/06 07:25:16;;;;;;;4.30;2.80;;;13.70;99.90;;;;;;4996175;28;20026;-72
2023/08/06 07:27:42;;;;;;;3.75;2.50;;;13.70;99.90;;;;;;5003491;28;20484;-72
2023/08/06 07:30:08;;;;;;;2.90;2.10;;;13.70;99.90;;;;;;5014970;28;20052;-71
2023/08/06 07:32:33;;;;;;;3.80;2.42;;;13.80;99.90;;;;;;5003183;28;20034;-72
2023/08/06 07:35:00;;;;;;;2.90;2.00;;;13.80;99.90;;;;;;4993800;28;20177;-73
2023/08/06 07:37:29;;;;;;;3.60;2.10;;;13.80;99.90;;;;;;5009176;28;20048;-72
2023/08/06 07:39:56;;;;;;;2.88;2.00;;;13.80;99.90;;;;;;5014699;28;20029;-73
2023/08/06 07:42:21;;;;;;;3.25;2.25;;;13.90;99.90;;;;;;5014475;28;20353;-72
2023/08/06 07:44:55;;;;;;;10.18;4.00;;;13.90;99.90;;;;;;5014763;28;20038;-72
2023/08/06 07:47:21;;;;;;;4.32;2.90;;;14.00;99.90;;;;;;5009528;28;20022;-73
2023/08/06 07:49:47;;;;;;;3.28;2.50;;;13.90;99.90;;;;;;5008192;28;20034;-73
2023/08/06 07:52:14;;;;;;;4.47;2.38;;;13.90;99.90;;;;;;5001326;28;20034;-73
2023/08/06 07:54:40;;;;;;;4.68;3.13;;;14.00;99.90;;;;;;4993441;28;20032;-73
2023/08/06 07:57:06;;;;;;;5.15;3.10;;;14.00;99.90;;;;;;4994125;28;20058;-73
2023/08/06 07:59:32;;;;;;;4.10;2.83;;;14.00;99.90;;;;;;4994035;28;20529;-73
2023/08/06 08:01:57;;;;;;;3.40;2.58;;;14.00;99.90;;;;;;4993988;28;20118;-73
2023/08/06 08:04:24;;;;;;;5.00;2.50;;;14.00;99.90;;;;;;4994084;28;20045;-72
2023/08/06 08:06:50;;;;;;;3.55;2.30;;;14.00;99.90;;;;;;4993936;28;20130;-73
2023/08/06 08:09:15;;;;;;;3.28;2.20;;;14.00;99.90;;;;;;4992370;28;20599;-72
2023/08/06 08:11:41;;;;;;;3.35;2.35;;;14.00;99.90;;;;;;5004509;28;20022;-73
2023/08/06 08:14:07;;;;;;;4.35;2.50;;;14.00;99.90;;;;;;5013285;28;20427;-72
2023/08/06 08:16:33;;;;;;;2.92;2.20;;;14.00;99.90;;;;;;5003950;28;20030;-72
2023/08/06 08:18:59;;;;;;;3.75;2.40;;;14.00;99.90;;;;;;4995424;28;20527;-72
2023/08/06 08:21:25;;;;;;;4.05;2.60;;;14.00;99.90;;;;;;5013289;28;20038;-72
2023/08/06 08:23:51;;;;;;;4.35;2.53;;;14.00;99.90;;;;;;5004247;28;20106;-73
2023/08/06 08:26:17;;;;;;;4.10;2.95;;;14.00;99.90;;;;;;5011861;28;20018;-72
2023/08/06 08:28:43;;;;;;;4.68;2.58;;;14.00;99.90;;;;;;5012648;28;20026;-72
2023/08/06 08:31:11;;;;;;;3.75;2.50;;;14.00;99.90;;;;;;5000894;28;20031;-72
2023/08/06 08:33:37;;;;;;;3.20;2.40;;;14.00;99.90;;;;;;5012792;28;20549;-72
2023/08/06 08:36:03;;;;;;;4.20;2.97;;;14.10;99.90;;;;;;5008434;28;20044;-72
2023/08/06 08:38:29;;;;;;;3.95;2.72;;;14.10;99.90;;;;;;5002558;28;20046;-72
2023/08/06 08:40:55;;;;;;;4.05;2.63;;;14.10;99.90;;;;;;4993237;28;20030;-72
2023/08/06 08:43:23;;;;;;;6.90;2.70;;;14.20;99.90;;;;;;4992054;28;20026;-72
2023/08/06 08:45:58;;;;;;;5.22;2.17;;;14.20;99.90;;;;;;4993838;28;20038;-72
2023/08/06 08:48:25;;;;;;;3.80;2.10;;;14.20;99.90;;;;;;4993939;28;20022;-72
2023/08/06 08:50:51;;;;;;;2.47;1.60;;;14.30;99.90;;;;;;4994028;28;20022;-72
2023/08/06 08:53:18;;;;;;;4.38;2.60;;;14.30;99.90;;;;;;4995612;28;20523;-72
2023/08/06 08:55:46;;;;;;;3.95;2.03;;;14.30;99.90;;;;;;5013515;28;20026;-72
2023/08/06 08:58:12;;;;;;;2.33;1.50;;;14.30;99.90;;;;;;4993915;28;20038;-72
2023/08/06 09:00:41;;;;;;;6.38;1.80;;;14.30;99.90;;;;;;4994148;28;20428;-72
2023/08/06 09:03:08;;;;;;;2.45;1.40;;;14.30;99.90;;;;;;4993835;28;20035;-72
2023/08/06 09:05:34;;;;;;;3.80;1.83;;;14.30;99.90;;;;;;4992607;28;20030;-72
2023/08/06 09:08:04;;;;;;;3.72;2.10;;;14.30;99.90;;;;;;4992725;28;20031;-72
2023/08/06 09:10:30;;;;;;;3.65;2.60;;;14.40;99.90;;;;;;4994083;28;20022;-72
2023/08/06 09:12:58;;;;;;;3.55;2.10;;;14.40;99.90;;;;;;4993571;28;20030;-72
2023/08/06 09:15:27;;;;;;;3.10;1.58;;;14.50;99.90;;;;;;4993105;28;20512;-72
2023/08/06 09:17:56;;;;;;;3.28;1.92;;;14.50;99.90;;;;;;4994181;28;20484;-72
2023/08/06 09:20:22;;;;;;;2.95;1.73;;;14.50;99.90;;;;;;4994024;28;20026;-72
2023/08/06 09:22:48;;;;;;;3.10;1.90;;;14.60;99.90;;;;;;4997035;28;20396;-71
2023/08/06 09:25:25;;;;;;;2.72;1.65;;;14.60;99.90;;;;;;4997909;28;20475;-72
2023/08/06 09:27:51;;;;;;;3.45;1.73;;;14.70;99.90;;;;;;4997523;28;20030;-72
2023/08/06 09:30:31;;;;;;;2.65;1.65;;;14.70;99.90;;;;;;4997540;28;20584;-72
2023/08/06 09:32:56;;;;;;;2.08;1.33;;;14.80;99.90;;;;;;4997499;28;20400;-72
2023/08/06 09:35:22;;;;;;;4.80;1.58;;;15.10;99.90;;;;;;4997687;28;20037;-73
2023/08/06 09:37:48;;;;;;;2.47;1.45;;;15.30;99.90;;;;;;4997300;28;20022;-73
2023/08/06 09:40:31;;;;;;;3.22;1.30;;;15.50;99.90;;;;;;4996068;28;20028;-73
2023/08/06 09:42:58;;;;;;;2.78;1.33;;;15.70;99.90;;;;;;4997152;28;20041;-73
2023/08/06 09:45:30;;;;;;;1.80;1.05;;;15.70;99.90;;;;;;4997222;28;20085;-73
2023/08/06 09:47:57;;;;;;;2.55;1.23;;;15.80;99.90;;;;;;4997138;28;20026;-73
2023/08/06 09:50:26;;;;;;;2.22;1.10;;;15.80;99.90;;;;;;4997473;28;20041;-73
2023/08/06 09:52:52;;;;;;;3.13;1.73;;;15.90;99.90;;;;;;4997017;28;20022;-73
2023/08/06 09:55:19;;;;;;;2.80;1.45;;;15.90;99.90;;;;;;4997307;28;20415;-73
2023/08/06 09:57:46;;;;;;;2.65;1.38;;;15.80;99.90;;;;;;4996882;28;20061;-72
2023/08/06 10:00:13;;;;;;;3.28;1.50;;;15.80;99.90;;;;;;4996909;28;20113;-72
2023/08/06 10:02:39;;;;;;;1.63;0.93;;;15.60;99.90;;;;;;4995588;28;20082;-73
2023/08/06 10:05:07;;;;;;;2.50;1.05;;;15.60;99.90;;;;;;4996817;28;20077;-72
2023/08/06 10:07:34;;;;;;;2.00;1.17;;;15.50;99.90;;;;;;4997070;28;20027;-73
2023/08/06 10:10:00;;;;;;;2.95;1.00;;;15.40;99.90;;;;;;4996817;28;20081;-73
2023/08/06 10:12:29;;;;;;;2.33;1.13;;;15.40;99.90;;;;;;4996667;28;20488;-73
2023/08/06 10:14:57;;;;;;;3.22;1.00;;;15.40;99.90;;;;;;4996712;28;20137;-73
2023/08/06 10:17:24;;;;;;;2.58;1.00;;;15.60;99.90;;;;;;4996540;28;20068;-74
2023/08/06 10:19:51;;;;;;;3.20;1.90;;;15.80;99.90;;;;;;4997321;28;20046;-73
2023/08/06 10:22:18;;;;;;;3.03;1.40;;;15.90;99.90;;;;;;4997434;28;20054;-73
2023/08/06 10:25:04;;;;;;;1.83;1.05;;;16.10;99.90;;;;;;4995411;28;20105;-73
2023/08/06 10:27:35;;;;;;;1.73;0.90;;;16.20;99.90;;;;;;4996401;28;20104;-73
2023/08/06 10:30:30;;;;;;;1.98;1.02;;;16.40;99.90;;;;;;4995205;28;20041;-74
2023/08/06 10:33:00;;;;;;;1.75;1.05;;;16.60;99.90;;;;;;4995737;28;20069;-73
2023/08/06 10:35:35;;;;;;;1.98;1.25;;;16.90;99.90;;;;;;4996271;28;20464;-74
2023/08/06 10:38:13;;;;;;;3.65;1.88;;;17.20;99.90;;;;;;4996220;28;20038;-73
2023/08/06 10:40:54;;;;;;;1.85;1.00;;;17.40;99.90;;;;;;4996424;28;20033;-73
2023/08/06 10:43:26;;;;;;;2.05;0.98;;;17.50;99.90;;;;;;4996037;28;20563;-74
2023/08/06 10:45:52;;;;;;;1.52;0.60;;;17.50;99.90;;;;;;5014422;28;20022;-76
2023/08/06 10:48:38;;;;;;;2.10;0.90;;;17.40;99.90;;;;;;5014243;28;20026;-74
2023/08/06 10:51:08;;;;;;;2.70;0.90;;;17.10;99.90;;;;;;5015461;28;20033;-74
2023/08/06 10:53:34;;;;;;;4.40;0.85;;;17.00;99.90;;;;;;5015603;28;20022;-73
2023/08/06 10:56:23;;;;;;;1.98;0.80;;;16.90;99.90;;;;;;5015815;28;20412;-74
2023/08/06 10:58:51;;;;;;;1.63;0.50;;;16.90;99.90;;;;;;5015331;28;20022;-74
2023/08/06 11:01:17;;;;;;;0.93;0.52;;;17.00;99.90;;;;;;5015493;28;20022;-74
2023/08/06 11:03:46;;;;;;;0.70;0.40;;;17.10;99.90;;;;;;5015319;28;20095;-74
2023/08/06 11:06:19;;;;;;;0.95;0.50;;;17.20;99.90;;;;;;5013952;28;20033;-74
2023/08/06 11:08:49;;;;;;;0.63;0.30;;;17.20;99.90;;;;;;5015325;28;20392;-74
2023/08/06 11:11:16;;;;;;;0.73;0.47;;;17.20;99.90;;;;;;5015837;28;20503;-74
2023/08/06 11:13:44;;;;;;;0.88;0.43;;;17.30;99.90;;;;;;5015106;28;20037;-73
2023/08/06 11:16:11;;;;;;;1.15;0.38;;;17.30;99.90;;;;;;5015112;28;20045;-74
2023/08/06 11:18:36;;;;;;;1.17;0.30;;;17.40;99.90;;;;;;5014113;28;20042;-74
2023/08/06 11:21:02;;;;;;;1.20;0.30;;;17.40;99.90;;;;;;5015130;28;20053;-74
2023/08/06 11:23:29;;;;;;;1.15;0.40;;;17.40;99.90;;;;;;5015432;28;20030;-74
2023/08/06 11:25:58;;;;;;;0.63;0.30;;;17.30;99.90;;;;;;5014852;28;20026;-74
2023/08/06 11:28:24;;;;;;;0.68;0.30;;;17.30;99.90;;;;;;5013956;28;20049;-74
2023/08/06 11:30:50;;;;;;;0.90;0.30;;;17.20;99.90;;;;;;5014804;28;20084;-74
2023/08/06 11:33:26;;;;;;;1.08;0.30;;;17.10;99.90;;;;;;5013545;28;20120;-74
2023/08/06 11:35:52;;;;;;;0.55;0.20;;;17.00;99.90;;;;;;5014712;28;20083;-74
2023/08/06 11:38:18;;;;;;;0.93;0.30;;;17.00;99.90;;;;;;5014640;28;20468;-74
2023/08/06 11:40:45;;;;;;;0.77;0.30;;;17.20;99.90;;;;;;4997447;28;20113;-74
2023/08/06 11:43:12;;;;;;;2.42;0.40;;;17.40;99.90;;;;;;5013279;28;20030;-74
2023/08/06 11:45:38;;;;;;;1.55;0.47;;;17.50;99.90;;;;;;5013734;28;20026;-74
2023/08/06 11:48:05;;;;;;;0.68;0.22;;;17.60;99.90;;;;;;5013330;28;20079;-74
2023/08/06 11:50:31;;;;;;;1.25;0.40;;;17.60;99.90;;;;;;5014739;28;20037;-74
2023/08/06 11:52:58;;;;;;;0.88;0.30;;;17.60;99.90;;;;;;5014477;28;20030;-75
2023/08/06 11:55:25;;;;;;;0.77;0.32;;;17.50;99.90;;;;;;5014347;28;20030;-74
2023/08/06 11:57:51;;;;;;;0.22;0.20;;;17.40;99.90;;;;;;5014565;28;20029;-74
2023/08/06 12:00:19;;;;;;;1.95;0.30;;;17.40;99.90;;;;;;5014140;28;20040;-74
2023/08/06 12:02:46;;;;;;;0.55;0.30;;;17.30;99.90;;;;;;5014198;28;20104;-74
2023/08/06 12:05:17;;;;;;;0.45;0.20;;;17.20;99.90;;;;;;5014266;28;20022;-73
2023/08/06 12:07:47;;;;;;;0.57;0.20;;;17.00;99.90;;;;;;5014309;28;20018;-74
2023/08/06 12:10:13;;;;;;;0.60;0.20;;;16.80;99.90;;;;;;5014403;28;20030;-74
2023/08/06 12:12:40;;;;;;;0.50;0.30;;;16.60;99.90;;;;;;5014120;28;20041;-73
2023/08/06 12:15:07;;;;;;;0.35;0.20;;;16.40;99.90;;;;;;5012815;28;20030;-74
2023/08/06 12:17:33;;;;;;;0.73;0.30;;;16.20;99.90;;;;;;5014349;28;20030;-74
2023/08/06 12:19:59;;;;;;;1.52;0.20;;;16.10;99.90;;;;;;5013128;28;20034;-74
2023/08/06 12:22:25;;;;;;;0.40;0.20;;;16.00;99.90;;;;;;5013857;28;20388;-73
2023/08/06 12:24:50;;;;;;;0.63;0.13;;;15.90;99.90;;;;;;4996396;28;20030;-74
2023/08/06 12:27:16;;;;;;;0.17;0.10;;;15.90;99.90;;;;;;5014412;28;20034;-74
2023/08/06 12:29:43;;;;;;;0.32;0.20;;;16.00;99.90;;;;;;5014003;28;20029;-74
2023/08/06 12:32:10;;;;;;;0.00;0.00;;;16.10;99.90;;;;;;5012530;28;20045;-74
2023/08/06 12:34:37;;;;;;;0.15;0.10;;;16.10;99.90;;;;;;5013833;28;20057;-74
2023/08/06 12:37:03;;;;;;;0.03;0.03;;;16.20;99.90;;;;;;5014127;28;20026;-74
2023/08/06 12:39:29;;;;;;;0.00;0.00;;;16.20;99.90;;;;;;5013759;28;20045;-74
2023/08/06 12:41:57;;;;;;;1.85;0.10;;;16.20;99.90;;;;;;5013638;28;20030;-74
2023/08/06 12:44:24;;;;;;;0.30;0.10;;;16.10;99.90;;;;;;5013679;28;20026;-74
2023/08/06 12:46:51;;;;;;;0.22;0.00;;;16.10;99.90;;;;;;5013689;28;20022;-74